createdAt,value
2023-02-19T00:00:07.809Z,42.33
2023-02-19T00:02:34.226Z,42.35
2023-02-19T00:05:00.766Z,42.77
2023-02-19T00:07:27.313Z,42.51
2023-02-19T00:09:53.792Z,41.84
2023-02-19T00:12:20.383Z,42.47
2023-02-19T00:14:46.841Z,42.87
2023-02-19T00:17:13.370Z,43.22
2023-02-19T00:19:39.814Z,42.76
2023-02-19T00:22:06.239Z,44.17
2023-02-19T00:24:32.693Z,43.63
2023-02-19T00:26:59.099Z,44.85
2023-02-19T00:29:25.592Z,45.36
2023-02-19T00:31:52.257Z,44.44
2023-02-19T00:34:18.833Z,45.72
2023-02-19T00:36:45.264Z,45.09
2023-02-19T00:39:11.848Z,44.14
2023-02-19T00:41:38.219Z,46.20
2023-02-19T00:44:04.704Z,45.01
2023-02-19T00:46:31.322Z,45.53
2023-02-19T00:48:57.836Z,45.29
2023-02-19T00:51:24.258Z,44.37
2023-02-19T00:53:50.764Z,43.69
2023-02-19T00:56:17.255Z,42.96
2023-02-19T00:58:43.783Z,42.30
2023-02-19T01:01:10.607Z,42.85
2023-02-19T01:03:37.235Z,43.35
2023-02-19T01:06:03.912Z,43.15
2023-02-19T01:08:30.809Z,42.75
2023-02-19T01:10:57.300Z,44.19
2023-02-19T01:13:23.741Z,43.62
2023-02-19T01:15:50.253Z,42.91
2023-02-19T01:18:16.740Z,42.95
2023-02-19T01:20:43.132Z,42.69
2023-02-19T01:23:09.570Z,42.57
2023-02-19T01:25:36.144Z,42.33
2023-02-19T01:28:03.049Z,42.35
2023-02-19T01:30:29.557Z,41.59
2023-02-19T01:32:56.404Z,41.87
2023-02-19T01:35:22.853Z,42.00
2023-02-19T01:37:49.478Z,42.06
2023-02-19T01:40:15.930Z,41.27
2023-02-19T01:42:42.581Z,41.25
2023-02-19T01:45:08.985Z,41.66
2023-02-19T01:47:35.342Z,41.42
2023-02-19T01:50:02.383Z,41.67
2023-02-19T01:52:28.861Z,41.52
2023-02-19T01:54:55.311Z,41.33
2023-02-19T01:57:21.753Z,41.58
2023-02-19T01:59:48.833Z,42.43
2023-02-19T02:02:15.304Z,43.01
2023-02-19T02:04:42.042Z,43.29
2023-02-19T02:07:08.537Z,43.01
2023-02-19T02:09:35.138Z,43.19
2023-02-19T02:12:02.003Z,43.08
2023-02-19T02:14:28.737Z,44.71
2023-02-19T02:16:55.447Z,43.63
2023-02-19T02:19:24.063Z,43.30
2023-02-19T02:21:50.610Z,42.97
2023-02-19T02:24:17.008Z,43.80
2023-02-19T02:26:43.791Z,43.86
2023-02-19T02:29:10.711Z,44.23
2023-02-19T02:31:43.253Z,44.17
2023-02-19T02:34:18.465Z,43.83
2023-02-19T02:36:44.922Z,43.84
2023-02-19T02:39:12.632Z,43.82
2023-02-19T02:41:39.154Z,44.00
2023-02-19T02:44:05.623Z,45.27
2023-02-19T02:46:32.048Z,45.73
2023-02-19T02:48:58.426Z,46.17
2023-02-19T02:51:25.377Z,46.61
2023-02-19T02:53:53.000Z,46.16
2023-02-19T02:56:27.802Z,47.45
2023-02-19T02:58:57.121Z,48.89
2023-02-19T03:01:24.089Z,47.93
2023-02-19T03:03:50.547Z,47.93
2023-02-19T03:06:17.071Z,49.15
2023-02-19T03:08:45.865Z,49.36
2023-02-19T03:11:12.300Z,49.36
2023-02-19T03:13:38.713Z,49.14
2023-02-19T03:16:05.187Z,49.14
2023-02-19T03:18:31.708Z,49.98
2023-02-19T03:20:58.170Z,49.49
2023-02-19T03:23:24.804Z,49.83
2023-02-19T03:25:51.386Z,49.36
2023-02-19T03:28:17.841Z,49.90
2023-02-19T03:30:44.540Z,49.61
2023-02-19T03:33:11.022Z,49.20
2023-02-19T03:35:37.561Z,48.82
2023-02-19T03:38:04.070Z,49.37
2023-02-19T03:40:30.849Z,49.32
2023-02-19T03:42:57.613Z,49.81
2023-02-19T03:45:24.030Z,49.36
2023-02-19T03:47:50.466Z,49.01
2023-02-19T03:50:16.978Z,48.83
2023-02-19T03:52:43.604Z,48.92
2023-02-19T03:55:10.252Z,49.73
2023-02-19T03:57:37.040Z,50.17
2023-02-19T04:00:03.593Z,49.52
2023-02-19T04:02:30.223Z,49.17
2023-02-19T04:04:56.675Z,49.01
2023-02-19T04:07:23.217Z,48.53
2023-02-19T04:09:49.862Z,49.03
2023-02-19T04:12:16.420Z,48.89
2023-02-19T04:14:42.903Z,49.82
2023-02-19T04:17:09.491Z,49.92
2023-02-19T04:19:36.194Z,50.75
2023-02-19T04:22:03.169Z,50.33
2023-02-19T04:24:29.691Z,50.93
2023-02-19T04:26:56.280Z,50.42
2023-02-19T04:29:22.842Z,50.01
2023-02-19T04:31:50.570Z,50.20
2023-02-19T04:34:17.185Z,50.11
2023-02-19T04:36:44.283Z,51.55
2023-02-19T04:39:10.749Z,51.69
2023-02-19T04:41:39.498Z,50.79
2023-02-19T04:44:05.958Z,50.32
2023-02-19T04:46:32.798Z,50.63
2023-02-19T04:48:59.265Z,51.58
2023-02-19T04:51:25.739Z,50.96
2023-02-19T04:53:52.343Z,50.36
2023-02-19T04:56:18.789Z,50.24
2023-02-19T04:58:45.358Z,51.44
2023-02-19T05:01:12.341Z,51.93
2023-02-19T05:03:39.178Z,51.52
2023-02-19T05:06:05.670Z,53.33
2023-02-19T05:08:32.115Z,53.28
2023-02-19T05:10:58.580Z,52.88
2023-02-19T05:13:25.028Z,53.38
2023-02-19T05:15:51.538Z,54.71
2023-02-19T05:18:18.089Z,54.85
2023-02-19T05:20:44.871Z,54.57
2023-02-19T05:23:11.323Z,54.66
2023-02-19T05:25:37.822Z,54.65
2023-02-19T05:28:04.244Z,54.71
2023-02-19T05:30:30.830Z,55.04
2023-02-19T05:32:57.494Z,54.80
2023-02-19T05:35:24.238Z,56.04
2023-02-19T05:37:50.690Z,56.38
2023-02-19T05:40:17.331Z,55.13
2023-02-19T05:42:43.831Z,56.05
2023-02-19T05:45:10.307Z,55.68
2023-02-19T05:47:36.738Z,57.58
2023-02-19T05:50:03.244Z,56.72
2023-02-19T05:52:29.695Z,55.86
2023-02-19T05:54:56.149Z,56.00
2023-02-19T05:57:22.764Z,56.45
2023-02-19T05:59:49.207Z,55.91
2023-02-19T06:02:15.731Z,55.86
2023-02-19T06:04:42.183Z,55.14
2023-02-19T06:07:08.893Z,55.24
2023-02-19T06:09:35.420Z,56.09
2023-02-19T06:12:01.844Z,56.04
2023-02-19T06:14:28.242Z,55.86
2023-02-19T06:16:54.749Z,56.03
2023-02-19T06:19:21.263Z,55.96
2023-02-19T06:21:47.738Z,55.71
2023-02-19T06:24:14.171Z,55.27
2023-02-19T06:26:40.635Z,54.83
2023-02-19T06:29:07.220Z,54.60
2023-02-19T06:31:33.791Z,55.86
2023-02-19T06:34:00.450Z,56.39
2023-02-19T06:36:26.855Z,55.87
2023-02-19T06:38:53.604Z,55.44
2023-02-19T06:41:20.064Z,55.58
2023-02-19T06:43:46.438Z,55.48
2023-02-19T06:46:14.013Z,56.29
2023-02-19T06:48:40.529Z,57.40
2023-02-19T06:51:07.173Z,56.47
2023-02-19T06:53:33.891Z,56.54
2023-02-19T06:56:00.776Z,57.01
2023-02-19T06:58:27.195Z,56.18
2023-02-19T07:00:53.720Z,55.99
2023-02-19T07:03:20.248Z,56.74
2023-02-19T07:05:46.721Z,56.77
2023-02-19T07:08:13.147Z,56.65
2023-02-19T07:10:39.541Z,56.43
2023-02-19T07:13:06.062Z,57.34
2023-02-19T07:15:32.744Z,55.76
2023-02-19T07:17:59.344Z,56.35
2023-02-19T07:20:25.885Z,57.34
2023-02-19T07:22:52.319Z,57.71
2023-02-19T07:25:18.956Z,56.22
2023-02-19T07:27:45.793Z,56.25
2023-02-19T07:30:12.349Z,55.57
2023-02-19T07:32:38.837Z,54.84
2023-02-19T07:35:05.277Z,54.93
2023-02-19T07:37:31.730Z,54.62
2023-02-19T07:39:58.563Z,54.04
2023-02-19T07:42:25.022Z,55.52
2023-02-19T07:44:51.564Z,54.22
2023-02-19T07:47:18.133Z,55.34
2023-02-19T07:49:45.748Z,54.78
2023-02-19T07:52:12.357Z,54.79
2023-02-19T07:54:38.923Z,55.59
2023-02-19T07:57:05.407Z,54.23
2023-02-19T07:59:31.903Z,54.76
2023-02-19T08:01:58.614Z,54.66
2023-02-19T08:04:25.267Z,55.12
2023-02-19T08:06:52.405Z,57.23
2023-02-19T08:09:19.118Z,54.45
2023-02-19T08:11:45.558Z,54.37
2023-02-19T08:14:12.069Z,55.08
2023-02-19T08:16:43.358Z,55.23
2023-02-19T08:19:10.184Z,54.72
2023-02-19T08:21:36.679Z,54.91
2023-02-19T08:24:03.144Z,53.97
2023-02-19T08:26:30.728Z,53.87
2023-02-19T08:28:57.226Z,53.66
2023-02-19T08:31:24.308Z,53.06
2023-02-19T08:33:50.965Z,53.08
2023-02-19T08:36:17.429Z,52.83
2023-02-19T08:38:43.919Z,54.22
2023-02-19T08:41:10.902Z,55.62
2023-02-19T08:43:37.709Z,56.07
2023-02-19T08:46:04.200Z,56.17
2023-02-19T08:48:30.664Z,56.43
2023-02-19T08:50:57.525Z,57.11
2023-02-19T08:53:24.187Z,58.25
2023-02-19T08:55:51.237Z,58.34
2023-02-19T08:58:18.048Z,59.13
2023-02-19T09:00:44.592Z,58.51
2023-02-19T09:03:11.328Z,59.14
2023-02-19T09:05:38.025Z,59.11
2023-02-19T09:08:04.892Z,58.67
2023-02-19T09:10:31.560Z,59.09
2023-02-19T09:12:58.010Z,58.73
2023-02-19T09:15:24.543Z,58.12
2023-02-19T09:17:51.368Z,57.35
2023-02-19T09:20:18.213Z,56.84
2023-02-19T09:22:45.785Z,56.57
2023-02-19T09:25:12.497Z,57.53
2023-02-19T09:27:39.078Z,57.12
2023-02-19T09:30:05.508Z,56.92
2023-02-19T09:32:32.279Z,55.66
2023-02-19T09:34:58.930Z,55.80
2023-02-19T09:37:25.354Z,55.28
2023-02-19T09:39:51.955Z,54.90
2023-02-19T09:42:18.447Z,54.40
2023-02-19T09:44:45.088Z,54.06
2023-02-19T09:47:12.265Z,54.91
2023-02-19T09:49:38.816Z,54.50
2023-02-19T09:52:07.023Z,53.78
2023-02-19T09:54:33.805Z,53.87
2023-02-19T09:57:00.426Z,53.18
2023-02-19T09:59:27.251Z,53.25
2023-02-19T10:01:53.856Z,51.67
2023-02-19T10:04:20.935Z,50.72
2023-02-19T10:06:47.470Z,50.40
2023-02-19T10:09:13.856Z,49.65
2023-02-19T10:11:40.349Z,49.54
2023-02-19T10:14:06.944Z,49.39
2023-02-19T10:16:33.440Z,49.92
2023-02-19T10:19:01.222Z,47.88
2023-02-19T10:21:28.442Z,47.11
2023-02-19T10:23:55.549Z,48.06
2023-02-19T10:26:22.349Z,46.96
2023-02-19T10:28:49.440Z,47.47
2023-02-19T10:31:18.784Z,45.84
2023-02-19T10:33:47.037Z,45.20
2023-02-19T10:36:13.622Z,45.30
2023-02-19T10:38:40.102Z,44.70
2023-02-19T10:41:06.563Z,47.03
2023-02-19T10:43:33.143Z,45.93
2023-02-19T10:45:59.953Z,45.10
2023-02-19T10:48:26.539Z,44.75
2023-02-19T10:50:53.219Z,44.36
2023-02-19T10:53:19.794Z,43.60
2023-02-19T10:55:47.457Z,44.06
2023-02-19T10:58:15.342Z,43.77
2023-02-19T11:00:45.723Z,43.98
2023-02-19T11:03:12.530Z,43.31
2023-02-19T11:05:39.150Z,42.32
2023-02-19T11:08:06.553Z,42.80
2023-02-19T11:10:33.618Z,43.53
2023-02-19T11:13:01.124Z,43.34
2023-02-19T11:15:27.730Z,43.74
2023-02-19T11:17:54.678Z,43.76
2023-02-19T11:20:21.312Z,43.86
2023-02-19T11:22:47.706Z,44.31
2023-02-19T11:25:14.549Z,43.52
2023-02-19T11:27:41.839Z,42.68
2023-02-19T11:30:10.628Z,43.16
2023-02-19T11:32:37.496Z,43.40
2023-02-19T11:35:04.106Z,43.73
2023-02-19T11:37:30.688Z,43.80
2023-02-19T11:39:57.533Z,44.67
2023-02-19T11:42:24.877Z,44.50
2023-02-19T11:44:52.666Z,44.58
2023-02-19T11:47:19.304Z,46.06
2023-02-19T11:49:48.162Z,45.70
2023-02-19T11:52:14.697Z,45.70
2023-02-19T11:54:41.532Z,46.46
2023-02-19T11:57:08.323Z,46.49
2023-02-19T11:59:35.122Z,48.73
2023-02-19T12:02:02.222Z,51.18
2023-02-19T12:04:29.448Z,51.94
2023-02-19T12:06:55.953Z,51.78
2023-02-19T12:09:22.533Z,52.02
2023-02-19T12:11:49.075Z,53.49
2023-02-19T12:14:15.953Z,53.08
2023-02-19T12:16:42.428Z,52.46
2023-02-19T12:19:09.784Z,52.24
2023-02-19T12:21:37.295Z,53.63
2023-02-19T12:24:03.861Z,52.87
2023-02-19T12:26:32.996Z,51.99
2023-02-19T12:28:59.828Z,51.54
2023-02-19T12:31:29.043Z,51.47
2023-02-19T12:33:55.734Z,51.50
2023-02-19T12:36:22.239Z,50.63
2023-02-19T12:38:49.424Z,50.76
2023-02-19T12:41:16.415Z,49.96
2023-02-19T12:43:43.395Z,48.95
2023-02-19T12:46:13.589Z,48.82
2023-02-19T12:48:41.114Z,47.87
2023-02-19T12:51:08.139Z,47.60
2023-02-19T12:53:40.656Z,47.32
2023-02-19T12:56:07.326Z,47.15
2023-02-19T12:58:33.889Z,46.35
2023-02-19T13:01:00.701Z,46.33
2023-02-19T13:03:27.724Z,46.39
2023-02-19T13:05:54.526Z,47.59
2023-02-19T13:08:21.174Z,48.73
2023-02-19T13:10:47.907Z,47.05
2023-02-19T13:13:15.375Z,46.15
2023-02-19T13:15:42.075Z,46.14
2023-02-19T13:18:09.377Z,45.49
2023-02-19T13:20:36.385Z,45.32
2023-02-19T13:23:03.031Z,45.84
2023-02-19T13:25:33.215Z,45.69
2023-02-19T13:28:00.162Z,45.06
2023-02-19T13:30:27.120Z,44.48
2023-02-19T13:32:54.130Z,44.01
2023-02-19T13:35:23.660Z,43.71
2023-02-19T13:37:53.212Z,44.57
2023-02-19T13:40:21.344Z,43.80
2023-02-19T13:42:49.474Z,44.26
2023-02-19T13:45:15.987Z,44.25
2023-02-19T13:47:43.549Z,44.00
2023-02-19T13:50:11.328Z,47.16
2023-02-19T13:52:40.862Z,47.68
2023-02-19T13:55:09.215Z,47.45
2023-02-19T13:57:35.957Z,48.62
2023-02-19T14:00:05.431Z,49.29
2023-02-19T14:02:32.421Z,49.24
2023-02-19T14:05:00.800Z,48.64
2023-02-19T14:07:27.670Z,48.21
2023-02-19T14:09:55.696Z,48.66
2023-02-19T14:12:22.676Z,47.65
2023-02-19T14:14:49.496Z,48.40
2023-02-19T14:17:16.163Z,49.70
2023-02-19T14:19:43.143Z,49.29
2023-02-19T14:22:10.107Z,49.58
2023-02-19T14:24:38.152Z,49.67
2023-02-19T14:27:05.084Z,49.99
2023-02-19T14:29:31.970Z,51.05
2023-02-19T14:31:59.385Z,50.34
2023-02-19T14:34:26.346Z,51.07
2023-02-19T14:36:53.220Z,50.05
2023-02-19T14:39:19.958Z,49.35
2023-02-19T14:41:46.690Z,49.58
2023-02-19T14:44:13.623Z,50.01
2023-02-19T14:46:40.560Z,49.26
2023-02-19T14:49:07.412Z,48.62
2023-02-19T14:51:34.198Z,47.89
2023-02-19T14:54:01.107Z,48.70
2023-02-19T14:56:28.199Z,48.56
2023-02-19T14:58:54.800Z,48.22
2023-02-19T15:01:22.026Z,48.35
2023-02-19T15:03:50.028Z,48.61
2023-02-19T15:06:17.962Z,48.51
2023-02-19T15:08:44.926Z,47.87
2023-02-19T15:11:12.932Z,48.12
2023-02-19T15:13:40.015Z,48.16
2023-02-19T15:16:06.992Z,48.14
2023-02-19T15:18:34.453Z,49.53
2023-02-19T15:21:01.407Z,50.49
2023-02-19T15:23:28.326Z,52.53
2023-02-19T15:25:55.159Z,55.51
2023-02-19T15:28:29.436Z,58.72
2023-02-19T15:30:56.385Z,58.00
2023-02-19T15:33:23.835Z,56.53
2023-02-19T15:35:50.831Z,55.78
2023-02-19T15:38:18.049Z,57.51
2023-02-19T15:40:45.487Z,63.28
2023-02-19T15:43:12.427Z,68.25
2023-02-19T15:45:39.419Z,66.65
2023-02-19T15:48:05.975Z,63.58
2023-02-19T15:50:32.841Z,66.86
2023-02-19T15:52:59.798Z,69.08
2023-02-19T15:55:27.607Z,70.99
2023-02-19T15:57:54.456Z,72.34
2023-02-19T16:00:21.475Z,74.91
2023-02-19T16:02:48.658Z,72.14
2023-02-19T16:05:15.168Z,71.72
2023-02-19T16:07:42.206Z,68.66
2023-02-19T16:10:09.111Z,84.33
2023-02-19T16:12:36.307Z,84.44
2023-02-19T16:15:03.276Z,72.66
2023-02-19T16:17:31.203Z,64.20
2023-02-19T16:19:58.382Z,64.15
2023-02-19T16:22:25.388Z,62.44
2023-02-19T16:24:52.286Z,62.07
2023-02-19T16:27:20.002Z,61.82
2023-02-19T16:29:46.786Z,61.01
2023-02-19T16:32:13.991Z,60.57
2023-02-19T16:34:40.537Z,58.82
2023-02-19T16:37:07.311Z,58.19
2023-02-19T16:39:34.539Z,57.80
2023-02-19T16:42:02.890Z,57.02
2023-02-19T16:44:30.012Z,57.22
2023-02-19T16:46:57.087Z,56.10
2023-02-19T16:49:25.734Z,60.15
2023-02-19T16:51:53.014Z,59.54
2023-02-19T16:54:19.923Z,58.77
2023-02-19T16:56:47.172Z,57.66
2023-02-19T16:59:17.952Z,56.62
2023-02-19T17:01:45.470Z,55.99
2023-02-19T17:04:12.552Z,55.42
2023-02-19T17:06:39.205Z,53.78
2023-02-19T17:09:05.657Z,55.29
2023-02-19T17:11:33.741Z,58.30
2023-02-19T17:14:00.830Z,57.66
2023-02-19T17:16:28.009Z,57.72
2023-02-19T17:18:55.040Z,57.25
2023-02-19T17:21:21.834Z,56.15
2023-02-19T17:23:49.007Z,54.65
2023-02-19T17:26:16.023Z,54.62
2023-02-19T17:28:43.064Z,56.85
2023-02-19T17:31:10.308Z,56.35
2023-02-19T17:33:37.372Z,55.88
2023-02-19T17:36:04.512Z,55.31
2023-02-19T17:38:31.502Z,55.39
2023-02-19T17:40:59.001Z,55.77
2023-02-19T17:43:25.624Z,55.42
2023-02-19T17:45:54.519Z,56.99
2023-02-19T17:48:21.796Z,57.92
2023-02-19T17:50:51.674Z,57.64
2023-02-19T17:53:19.503Z,56.42
2023-02-19T17:55:46.863Z,56.41
2023-02-19T17:58:13.915Z,54.54
2023-02-19T18:00:40.970Z,55.17
2023-02-19T18:03:08.730Z,56.31
2023-02-19T18:05:35.828Z,55.57
2023-02-19T18:08:03.610Z,53.91
2023-02-19T18:10:30.893Z,53.83
2023-02-19T18:12:58.225Z,54.79
2023-02-19T18:15:25.501Z,53.80
2023-02-19T18:17:52.544Z,54.58
2023-02-19T18:20:19.748Z,54.76
2023-02-19T18:22:47.215Z,55.24
2023-02-19T18:25:13.967Z,54.34
2023-02-19T18:27:41.000Z,54.04
2023-02-19T18:30:08.766Z,55.04
2023-02-19T18:32:36.249Z,54.40
2023-02-19T18:35:04.058Z,55.42
2023-02-19T18:37:33.792Z,55.42
2023-02-19T18:40:01.901Z,53.51
2023-02-19T18:42:29.872Z,53.18
2023-02-19T18:44:56.937Z,53.79
2023-02-19T18:47:23.576Z,54.26
2023-02-19T18:49:52.921Z,54.08
2023-02-19T18:52:19.915Z,52.86
2023-02-19T18:54:52.639Z,54.76
2023-02-19T18:57:21.448Z,54.03
2023-02-19T18:59:48.469Z,57.14
2023-02-19T19:02:17.348Z,56.46
2023-02-19T19:04:44.719Z,55.28
2023-02-19T19:07:12.639Z,56.23
2023-02-19T19:09:40.580Z,56.67
2023-02-19T19:12:11.721Z,55.05
2023-02-19T19:14:39.435Z,54.78
2023-02-19T19:17:07.425Z,54.60
2023-02-19T19:19:33.999Z,55.85
2023-02-19T19:22:01.018Z,56.25
2023-02-19T19:24:28.034Z,56.37
2023-02-19T19:26:55.009Z,55.05
2023-02-19T19:29:23.208Z,54.48
2023-02-19T19:31:50.439Z,55.13
2023-02-19T19:34:20.080Z,55.64
2023-02-19T19:36:47.173Z,54.15
2023-02-19T19:39:14.214Z,54.17
2023-02-19T19:41:41.354Z,55.02
2023-02-19T19:44:11.153Z,54.63
2023-02-19T19:46:38.581Z,54.33
2023-02-19T19:49:06.335Z,54.63
2023-02-19T19:51:36.650Z,56.75
2023-02-19T19:54:03.684Z,56.52
2023-02-19T19:56:32.318Z,56.02
2023-02-19T19:59:01.943Z,56.35
2023-02-19T20:01:33.738Z,56.36
2023-02-19T20:04:00.598Z,55.34
2023-02-19T20:06:28.088Z,55.98
2023-02-19T20:08:58.372Z,55.60
2023-02-19T20:11:26.592Z,55.89
2023-02-19T20:13:55.382Z,57.66
2023-02-19T20:16:23.876Z,57.21
2023-02-19T20:18:50.872Z,56.70
2023-02-19T20:21:20.338Z,54.40
2023-02-19T20:23:48.958Z,59.07
2023-02-19T20:26:16.077Z,57.01
2023-02-19T20:28:44.146Z,57.83
2023-02-19T20:31:11.063Z,57.91
2023-02-19T20:33:38.395Z,57.74
2023-02-19T20:36:06.559Z,56.55
2023-02-19T20:38:33.720Z,56.63
2023-02-19T20:41:00.581Z,58.02
2023-02-19T20:43:28.563Z,59.98
2023-02-19T20:45:56.078Z,59.91
2023-02-19T20:48:23.118Z,59.19
2023-02-19T20:50:50.565Z,57.20
2023-02-19T20:53:17.561Z,57.43
2023-02-19T20:55:44.682Z,57.12
2023-02-19T20:58:12.633Z,57.07
2023-02-19T21:00:40.198Z,55.77
2023-02-19T21:03:07.562Z,54.72
2023-02-19T21:05:34.204Z,54.43
2023-02-19T21:08:01.229Z,54.26
2023-02-19T21:10:28.992Z,54.30
2023-02-19T21:12:56.234Z,53.52
2023-02-19T21:15:23.170Z,53.25
2023-02-19T21:17:50.387Z,51.84
2023-02-19T21:20:21.537Z,52.62
2023-02-19T21:22:48.643Z,52.63
2023-02-19T21:25:15.415Z,53.05
2023-02-19T21:27:42.359Z,53.05
2023-02-19T21:30:09.167Z,52.60
2023-02-19T21:32:36.137Z,52.46
2023-02-19T21:35:04.072Z,53.15
2023-02-19T21:37:31.989Z,53.62
2023-02-19T21:39:58.514Z,53.00
2023-02-19T21:42:25.626Z,52.18
2023-02-19T21:44:52.519Z,52.42
2023-02-19T21:47:19.219Z,51.78
2023-02-19T21:49:45.641Z,52.93
2023-02-19T21:52:12.889Z,52.23
2023-02-19T21:54:39.456Z,51.60
2023-02-19T21:57:05.902Z,51.64
2023-02-19T21:59:32.519Z,51.91
2023-02-19T22:01:59.140Z,51.75
2023-02-19T22:04:25.622Z,52.11
2023-02-19T22:06:52.155Z,50.87
2023-02-19T22:09:18.570Z,52.21
2023-02-19T22:11:45.022Z,52.57
2023-02-19T22:14:11.484Z,51.98
2023-02-19T22:16:38.015Z,52.51
2023-02-19T22:19:04.908Z,55.32
2023-02-19T22:21:31.511Z,52.67
2023-02-19T22:23:58.561Z,53.55
2023-02-19T22:26:25.034Z,52.65
2023-02-19T22:28:51.514Z,52.33
2023-02-19T22:31:18.497Z,52.18
2023-02-19T22:33:44.997Z,52.97
2023-02-19T22:36:11.677Z,51.62
2023-02-19T22:38:38.323Z,51.74
2023-02-19T22:41:06.973Z,52.04
2023-02-19T22:43:33.467Z,50.35
2023-02-19T22:46:01.501Z,49.48
2023-02-19T22:48:30.286Z,50.90
2023-02-19T22:50:58.040Z,51.20
2023-02-19T22:53:27.361Z,50.98
2023-02-19T22:55:53.935Z,53.00
2023-02-19T22:58:20.459Z,50.73
2023-02-19T23:00:46.947Z,51.98
2023-02-19T23:03:13.953Z,51.55
2023-02-19T23:05:40.688Z,52.71
2023-02-19T23:08:07.223Z,51.19
2023-02-19T23:10:33.767Z,52.76
2023-02-19T23:13:01.916Z,51.04
2023-02-19T23:15:28.330Z,51.66
2023-02-19T23:17:54.835Z,52.09
2023-02-19T23:20:21.449Z,51.60
2023-02-19T23:22:47.939Z,51.19
2023-02-19T23:25:14.849Z,51.59
2023-02-19T23:27:41.510Z,52.02
2023-02-19T23:30:08.155Z,51.71
2023-02-19T23:32:34.675Z,52.52
2023-02-19T23:35:01.343Z,52.30
2023-02-19T23:37:28.231Z,53.07
2023-02-19T23:39:54.645Z,52.03
2023-02-19T23:42:21.184Z,52.76
2023-02-19T23:44:47.878Z,55.03
2023-02-19T23:47:14.389Z,55.87
2023-02-19T23:49:40.903Z,58.19
2023-02-19T23:52:07.327Z,58.27
2023-02-19T23:54:33.785Z,57.08
2023-02-19T23:57:00.597Z,59.87
2023-02-19T23:59:27.083Z,57.46
